sensor_id;sensor_type;location;lat;lon;timestamp;P1;durP1;ratioP1;P2;durP2;ratioP2
78336;SDS011;67610;51.588;7.002;2024-03-25T00:00:54;12.18;;;2.60;;
78336;SDS011;67610;51.588;7.002;2024-03-25T00:03:19;13.27;;;2.83;;
78336;SDS011;67610;51.588;7.002;2024-03-25T00:05:44;11.07;;;2.15;;
78336;SDS011;67610;51.588;7.002;2024-03-25T00:08:10;11.63;;;2.50;;
78336;SDS011;67610;51.588;7.002;2024-03-25T00:10:35;9.02;;;2.47;;
78336;SDS011;67610;51.588;7.002;2024-03-25T00:13:02;9.95;;;2.42;;
78336;SDS011;67610;51.588;7.002;2024-03-25T00:15:27;9.30;;;2.03;;
78336;SDS011;67610;51.588;7.002;2024-03-25T00:17:53;10.95;;;2.00;;
78336;SDS011;67610;51.588;7.002;2024-03-25T00:20:18;10.20;;;2.22;;
78336;SDS011;67610;51.588;7.002;2024-03-25T00:22:43;13.05;;;3.92;;
78336;SDS011;67610;51.588;7.002;2024-03-25T00:25:09;19.42;;;4.07;;
78336;SDS011;67610;51.588;7.002;2024-03-25T00:27:35;13.90;;;4.00;;
78336;SDS011;67610;51.588;7.002;2024-03-25T00:30:00;16.58;;;4.30;;
78336;SDS011;67610;51.588;7.002;2024-03-25T00:32:30;14.52;;;4.18;;
78336;SDS011;67610;51.588;7.002;2024-03-25T00:34:55;18.23;;;6.65;;
78336;SDS011;67610;51.588;7.002;2024-03-25T00:37:20;20.92;;;7.78;;
78336;SDS011;67610;51.588;7.002;2024-03-25T00:39:46;25.85;;;8.63;;
78336;SDS011;67610;51.588;7.002;2024-03-25T00:42:12;30.05;;;9.55;;
78336;SDS011;67610;51.588;7.002;2024-03-25T00:44:37;26.88;;;8.18;;
78336;SDS011;67610;51.588;7.002;2024-03-25T00:47:03;27.98;;;9.02;;
78336;SDS011;67610;51.588;7.002;2024-03-25T00:49:28;24.40;;;9.35;;
78336;SDS011;67610;51.588;7.002;2024-03-25T00:51:54;30.70;;;9.73;;
78336;SDS011;67610;51.588;7.002;2024-03-25T00:54:19;25.83;;;9.02;;
78336;SDS011;67610;51.588;7.002;2024-03-25T00:56:45;29.85;;;10.73;;
78336;SDS011;67610;51.588;7.002;2024-03-25T00:59:11;29.23;;;10.32;;
78336;SDS011;67610;51.588;7.002;2024-03-25T01:01:38;37.67;;;13.40;;
78336;SDS011;67610;51.588;7.002;2024-03-25T01:04:03;31.08;;;12.52;;
78336;SDS011;67610;51.588;7.002;2024-03-25T01:06:29;33.80;;;12.65;;
78336;SDS011;67610;51.588;7.002;2024-03-25T01:08:54;37.88;;;15.60;;
78336;SDS011;67610;51.588;7.002;2024-03-25T01:11:20;44.10;;;17.20;;
78336;SDS011;67610;51.588;7.002;2024-03-25T01:13:48;56.47;;;22.05;;
78336;SDS011;67610;51.588;7.002;2024-03-25T01:16:14;41.50;;;17.55;;
78336;SDS011;67610;51.588;7.002;2024-03-25T01:18:39;41.97;;;17.90;;
78336;SDS011;67610;51.588;7.002;2024-03-25T01:21:04;44.45;;;18.83;;
78336;SDS011;67610;51.588;7.002;2024-03-25T01:23:30;43.05;;;17.83;;
78336;SDS011;67610;51.588;7.002;2024-03-25T01:25:55;43.95;;;17.38;;
78336;SDS011;67610;51.588;7.002;2024-03-25T01:28:21;45.70;;;18.35;;
78336;SDS011;67610;51.588;7.002;2024-03-25T01:30:47;39.28;;;16.50;;
78336;SDS011;67610;51.588;7.002;2024-03-25T01:33:13;44.55;;;17.27;;
78336;SDS011;67610;51.588;7.002;2024-03-25T01:35:39;39.50;;;17.15;;
78336;SDS011;67610;51.588;7.002;2024-03-25T01:38:05;46.83;;;18.50;;
78336;SDS011;67610;51.588;7.002;2024-03-25T01:40:30;42.20;;;18.95;;
78336;SDS011;67610;51.588;7.002;2024-03-25T01:42:56;40.47;;;16.77;;
78336;SDS011;67610;51.588;7.002;2024-03-25T01:45:25;39.42;;;17.25;;
78336;SDS011;67610;51.588;7.002;2024-03-25T01:47:53;45.28;;;17.88;;
78336;SDS011;67610;51.588;7.002;2024-03-25T01:50:19;39.50;;;17.42;;
78336;SDS011;67610;51.588;7.002;2024-03-25T01:52:46;36.22;;;16.33;;
78336;SDS011;67610;51.588;7.002;2024-03-25T01:55:22;32.25;;;14.65;;
78336;SDS011;67610;51.588;7.002;2024-03-25T01:57:51;37.67;;;15.27;;
78336;SDS011;67610;51.588;7.002;2024-03-25T02:00:16;32.55;;;14.18;;
78336;SDS011;67610;51.588;7.002;2024-03-25T02:02:43;39.78;;;14.65;;
78336;SDS011;67610;51.588;7.002;2024-03-25T02:05:13;32.00;;;12.73;;
78336;SDS011;67610;51.588;7.002;2024-03-25T02:07:39;31.65;;;11.45;;
78336;SDS011;67610;51.588;7.002;2024-03-25T02:10:07;26.25;;;11.60;;
78336;SDS011;67610;51.588;7.002;2024-03-25T02:12:39;28.55;;;11.23;;
78336;SDS011;67610;51.588;7.002;2024-03-25T02:15:06;27.73;;;10.00;;
78336;SDS011;67610;51.588;7.002;2024-03-25T02:17:33;27.98;;;9.68;;
78336;SDS011;67610;51.588;7.002;2024-03-25T02:19:58;20.95;;;8.45;;
78336;SDS011;67610;51.588;7.002;2024-03-25T02:22:24;25.23;;;8.65;;
78336;SDS011;67610;51.588;7.002;2024-03-25T02:24:50;17.48;;;7.75;;
78336;SDS011;67610;51.588;7.002;2024-03-25T02:27:17;17.73;;;6.22;;
78336;SDS011;67610;51.588;7.002;2024-03-25T02:29:43;13.70;;;5.95;;
78336;SDS011;67610;51.588;7.002;2024-03-25T02:32:10;16.40;;;5.32;;
78336;SDS011;67610;51.588;7.002;2024-03-25T02:34:39;17.10;;;4.95;;
78336;SDS011;67610;51.588;7.002;2024-03-25T02:37:08;16.08;;;4.82;;
78336;SDS011;67610;51.588;7.002;2024-03-25T02:39:34;16.95;;;4.78;;
78336;SDS011;67610;51.588;7.002;2024-03-25T02:42:00;17.23;;;4.35;;
78336;SDS011;67610;51.588;7.002;2024-03-25T02:44:26;15.40;;;3.92;;
78336;SDS011;67610;51.588;7.002;2024-03-25T02:46:52;13.10;;;3.95;;
78336;SDS011;67610;51.588;7.002;2024-03-25T02:49:17;11.23;;;3.90;;
78336;SDS011;67610;51.588;7.002;2024-03-25T02:51:43;11.82;;;3.38;;
78336;SDS011;67610;51.588;7.002;2024-03-25T02:54:08;11.57;;;3.30;;
78336;SDS011;67610;51.588;7.002;2024-03-25T02:56:34;12.15;;;3.22;;
78336;SDS011;67610;51.588;7.002;2024-03-25T02:59:00;12.23;;;3.15;;
78336;SDS011;67610;51.588;7.002;2024-03-25T03:01:26;15.88;;;3.83;;
78336;SDS011;67610;51.588;7.002;2024-03-25T03:03:51;17.77;;;3.50;;
78336;SDS011;67610;51.588;7.002;2024-03-25T03:06:17;13.10;;;3.78;;
78336;SDS011;67610;51.588;7.002;2024-03-25T03:08:43;13.02;;;3.08;;
78336;SDS011;67610;51.588;7.002;2024-03-25T03:11:09;10.10;;;2.97;;
78336;SDS011;67610;51.588;7.002;2024-03-25T03:13:34;14.65;;;2.97;;
78336;SDS011;67610;51.588;7.002;2024-03-25T03:16:00;8.93;;;2.70;;
78336;SDS011;67610;51.588;7.002;2024-03-25T03:18:25;15.32;;;3.42;;
78336;SDS011;67610;51.588;7.002;2024-03-25T03:20:53;12.75;;;3.25;;
78336;SDS011;67610;51.588;7.002;2024-03-25T03:23:22;17.77;;;3.88;;
78336;SDS011;67610;51.588;7.002;2024-03-25T03:25:48;10.20;;;3.67;;
78336;SDS011;67610;51.588;7.002;2024-03-25T03:28:13;14.15;;;3.28;;
78336;SDS011;67610;51.588;7.002;2024-03-25T03:30:40;14.95;;;3.03;;
78336;SDS011;67610;51.588;7.002;2024-03-25T03:33:08;12.88;;;2.50;;
78336;SDS011;67610;51.588;7.002;2024-03-25T03:35:34;17.80;;;3.72;;
78336;SDS011;67610;51.588;7.002;2024-03-25T03:37:59;14.75;;;3.70;;
78336;SDS011;67610;51.588;7.002;2024-03-25T03:40:24;13.10;;;3.15;;
78336;SDS011;67610;51.588;7.002;2024-03-25T03:42:50;16.23;;;4.22;;
78336;SDS011;67610;51.588;7.002;2024-03-25T03:45:15;14.60;;;3.00;;
78336;SDS011;67610;51.588;7.002;2024-03-25T03:47:42;13.77;;;2.78;;
78336;SDS011;67610;51.588;7.002;2024-03-25T03:50:07;17.50;;;3.58;;
78336;SDS011;67610;51.588;7.002;2024-03-25T03:52:33;12.80;;;2.95;;
78336;SDS011;67610;51.588;7.002;2024-03-25T03:54:58;11.63;;;2.63;;
78336;SDS011;67610;51.588;7.002;2024-03-25T03:57:24;12.50;;;3.05;;
78336;SDS011;67610;51.588;7.002;2024-03-25T03:59:51;13.93;;;3.10;;
78336;SDS011;67610;51.588;7.002;2024-03-25T04:02:16;13.80;;;3.20;;
78336;SDS011;67610;51.588;7.002;2024-03-25T04:04:42;13.70;;;3.63;;
78336;SDS011;67610;51.588;7.002;2024-03-25T04:07:07;11.82;;;3.00;;
78336;SDS011;67610;51.588;7.002;2024-03-25T04:09:32;17.27;;;3.53;;
78336;SDS011;67610;51.588;7.002;2024-03-25T04:11:58;11.98;;;3.13;;
78336;SDS011;67610;51.588;7.002;2024-03-25T04:14:26;15.73;;;3.55;;
78336;SDS011;67610;51.588;7.002;2024-03-25T04:16:51;9.70;;;3.10;;
78336;SDS011;67610;51.588;7.002;2024-03-25T04:19:18;13.40;;;3.20;;
78336;SDS011;67610;51.588;7.002;2024-03-25T04:21:45;12.65;;;3.05;;
78336;SDS011;67610;51.588;7.002;2024-03-25T04:24:11;12.55;;;3.00;;
78336;SDS011;67610;51.588;7.002;2024-03-25T04:26:36;13.15;;;3.15;;
78336;SDS011;67610;51.588;7.002;2024-03-25T04:29:03;13.27;;;2.55;;
78336;SDS011;67610;51.588;7.002;2024-03-25T04:31:28;9.65;;;2.88;;
78336;SDS011;67610;51.588;7.002;2024-03-25T04:33:54;10.43;;;2.42;;
78336;SDS011;67610;51.588;7.002;2024-03-25T04:36:19;9.30;;;2.22;;
78336;SDS011;67610;51.588;7.002;2024-03-25T04:38:45;9.93;;;2.80;;
78336;SDS011;67610;51.588;7.002;2024-03-25T04:41:10;15.43;;;3.83;;
78336;SDS011;67610;51.588;7.002;2024-03-25T04:43:35;12.98;;;2.80;;
78336;SDS011;67610;51.588;7.002;2024-03-25T04:46:01;10.27;;;2.75;;
78336;SDS011;67610;51.588;7.002;2024-03-25T04:48:26;12.02;;;3.38;;
78336;SDS011;67610;51.588;7.002;2024-03-25T04:50:51;11.40;;;2.88;;
78336;SDS011;67610;51.588;7.002;2024-03-25T04:53:17;17.77;;;3.40;;
78336;SDS011;67610;51.588;7.002;2024-03-25T04:55:42;14.32;;;3.65;;
78336;SDS011;67610;51.588;7.002;2024-03-25T04:58:08;14.85;;;3.15;;
78336;SDS011;67610;51.588;7.002;2024-03-25T05:00:34;15.50;;;3.33;;
78336;SDS011;67610;51.588;7.002;2024-03-25T05:03:01;14.55;;;3.63;;
78336;SDS011;67610;51.588;7.002;2024-03-25T05:05:27;13.77;;;3.03;;
78336;SDS011;67610;51.588;7.002;2024-03-25T05:07:53;9.52;;;2.95;;
78336;SDS011;67610;51.588;7.002;2024-03-25T05:10:19;17.17;;;3.20;;
78336;SDS011;67610;51.588;7.002;2024-03-25T05:12:45;8.93;;;2.88;;
78336;SDS011;67610;51.588;7.002;2024-03-25T05:15:12;17.40;;;3.45;;
78336;SDS011;67610;51.588;7.002;2024-03-25T05:17:38;10.25;;;3.33;;
78336;SDS011;67610;51.588;7.002;2024-03-25T05:20:03;8.32;;;2.42;;
78336;SDS011;67610;51.588;7.002;2024-03-25T05:22:30;17.92;;;3.97;;
78336;SDS011;67610;51.588;7.002;2024-03-25T05:24:55;10.85;;;2.55;;
78336;SDS011;67610;51.588;7.002;2024-03-25T05:27:20;10.77;;;3.22;;
78336;SDS011;67610;51.588;7.002;2024-03-25T05:29:46;13.07;;;3.20;;
78336;SDS011;67610;51.588;7.002;2024-03-25T05:32:11;13.77;;;3.58;;
78336;SDS011;67610;51.588;7.002;2024-03-25T05:34:36;16.67;;;3.47;;
78336;SDS011;67610;51.588;7.002;2024-03-25T05:37:02;9.93;;;2.90;;
78336;SDS011;67610;51.588;7.002;2024-03-25T05:39:27;11.50;;;3.55;;
78336;SDS011;67610;51.588;7.002;2024-03-25T05:41:53;15.45;;;3.33;;
78336;SDS011;67610;51.588;7.002;2024-03-25T05:44:18;16.15;;;3.75;;
78336;SDS011;67610;51.588;7.002;2024-03-25T05:46:43;18.60;;;5.10;;
78336;SDS011;67610;51.588;7.002;2024-03-25T05:49:10;12.90;;;4.10;;
78336;SDS011;67610;51.588;7.002;2024-03-25T05:51:36;16.40;;;3.58;;
78336;SDS011;67610;51.588;7.002;2024-03-25T05:54:01;18.45;;;4.28;;
78336;SDS011;67610;51.588;7.002;2024-03-25T05:56:27;11.88;;;3.17;;
78336;SDS011;67610;51.588;7.002;2024-03-25T05:58:58;12.50;;;4.35;;
78336;SDS011;67610;51.588;7.002;2024-03-25T06:01:25;17.27;;;3.60;;
78336;SDS011;67610;51.588;7.002;2024-03-25T06:03:50;14.05;;;4.18;;
78336;SDS011;67610;51.588;7.002;2024-03-25T06:06:16;13.18;;;4.10;;
78336;SDS011;67610;51.588;7.002;2024-03-25T06:08:42;10.05;;;2.70;;
78336;SDS011;67610;51.588;7.002;2024-03-25T06:11:07;9.68;;;3.55;;
78336;SDS011;67610;51.588;7.002;2024-03-25T06:13:33;17.02;;;4.30;;
78336;SDS011;67610;51.588;7.002;2024-03-25T06:15:58;13.70;;;4.05;;
78336;SDS011;67610;51.588;7.002;2024-03-25T06:18:24;14.27;;;3.70;;
78336;SDS011;67610;51.588;7.002;2024-03-25T06:20:49;13.65;;;3.78;;
78336;SDS011;67610;51.588;7.002;2024-03-25T06:23:33;10.48;;;3.38;;
78336;SDS011;67610;51.588;7.002;2024-03-25T06:25:59;13.25;;;4.05;;
78336;SDS011;67610;51.588;7.002;2024-03-25T06:28:27;15.02;;;3.75;;
78336;SDS011;67610;51.588;7.002;2024-03-25T06:30:52;11.40;;;3.83;;
78336;SDS011;67610;51.588;7.002;2024-03-25T06:33:37;13.30;;;4.07;;
78336;SDS011;67610;51.588;7.002;2024-03-25T06:36:21;10.60;;;3.83;;
78336;SDS011;67610;51.588;7.002;2024-03-25T06:38:46;17.90;;;5.82;;
78336;SDS011;67610;51.588;7.002;2024-03-25T06:41:12;10.27;;;3.00;;
78336;SDS011;67610;51.588;7.002;2024-03-25T06:43:37;9.75;;;3.65;;
78336;SDS011;67610;51.588;7.002;2024-03-25T06:46:03;10.45;;;3.60;;
78336;SDS011;67610;51.588;7.002;2024-03-25T06:48:29;12.98;;;3.75;;
78336;SDS011;67610;51.588;7.002;2024-03-25T06:50:58;11.07;;;3.63;;
78336;SDS011;67610;51.588;7.002;2024-03-25T06:53:24;11.50;;;3.40;;
78336;SDS011;67610;51.588;7.002;2024-03-25T06:55:56;8.75;;;3.60;;
78336;SDS011;67610;51.588;7.002;2024-03-25T06:58:26;14.05;;;3.83;;
78336;SDS011;67610;51.588;7.002;2024-03-25T07:00:53;11.35;;;3.33;;
78336;SDS011;67610;51.588;7.002;2024-03-25T07:03:19;16.25;;;4.25;;
78336;SDS011;67610;51.588;7.002;2024-03-25T07:05:49;15.35;;;4.28;;
78336;SDS011;67610;51.588;7.002;2024-03-25T07:08:17;14.50;;;5.05;;
78336;SDS011;67610;51.588;7.002;2024-03-25T07:10:44;17.00;;;4.32;;
78336;SDS011;67610;51.588;7.002;2024-03-25T07:13:10;15.15;;;3.65;;
78336;SDS011;67610;51.588;7.002;2024-03-25T07:15:36;13.05;;;3.42;;
78336;SDS011;67610;51.588;7.002;2024-03-25T07:18:02;14.82;;;3.45;;
78336;SDS011;67610;51.588;7.002;2024-03-25T07:20:28;10.20;;;3.58;;
78336;SDS011;67610;51.588;7.002;2024-03-25T07:22:54;14.63;;;3.90;;
78336;SDS011;67610;51.588;7.002;2024-03-25T07:25:25;15.73;;;3.30;;
78336;SDS011;67610;51.588;7.002;2024-03-25T07:27:51;17.33;;;4.38;;
78336;SDS011;67610;51.588;7.002;2024-03-25T07:30:17;12.18;;;3.85;;
78336;SDS011;67610;51.588;7.002;2024-03-25T07:32:43;10.10;;;3.35;;
78336;SDS011;67610;51.588;7.002;2024-03-25T07:35:10;11.20;;;3.50;;
78336;SDS011;67610;51.588;7.002;2024-03-25T07:37:41;11.40;;;2.88;;
78336;SDS011;67610;51.588;7.002;2024-03-25T07:40:07;8.77;;;3.40;;
78336;SDS011;67610;51.588;7.002;2024-03-25T07:42:35;9.70;;;3.28;;
78336;SDS011;67610;51.588;7.002;2024-03-25T07:45:01;11.40;;;3.47;;
78336;SDS011;67610;51.588;7.002;2024-03-25T07:47:27;7.90;;;3.28;;
78336;SDS011;67610;51.588;7.002;2024-03-25T07:49:52;14.15;;;4.18;;
78336;SDS011;67610;51.588;7.002;2024-03-25T07:52:18;10.60;;;3.60;;
78336;SDS011;67610;51.588;7.002;2024-03-25T07:54:43;9.93;;;3.10;;
78336;SDS011;67610;51.588;7.002;2024-03-25T07:57:09;11.02;;;3.25;;
78336;SDS011;67610;51.588;7.002;2024-03-25T07:59:34;13.10;;;2.90;;
78336;SDS011;67610;51.588;7.002;2024-03-25T08:02:00;9.52;;;2.70;;
78336;SDS011;67610;51.588;7.002;2024-03-25T08:04:25;12.40;;;3.10;;
78336;SDS011;67610;51.588;7.002;2024-03-25T08:06:50;9.75;;;2.80;;
78336;SDS011;67610;51.588;7.002;2024-03-25T08:09:16;12.57;;;3.05;;
78336;SDS011;67610;51.588;7.002;2024-03-25T08:11:42;12.65;;;3.65;;
78336;SDS011;67610;51.588;7.002;2024-03-25T08:14:10;9.50;;;3.30;;
78336;SDS011;67610;51.588;7.002;2024-03-25T08:16:36;8.23;;;2.50;;
78336;SDS011;67610;51.588;7.002;2024-03-25T08:19:02;9.20;;;4.07;;
78336;SDS011;67610;51.588;7.002;2024-03-25T08:21:27;8.35;;;2.97;;
78336;SDS011;67610;51.588;7.002;2024-03-25T08:23:53;7.85;;;2.92;;
78336;SDS011;67610;51.588;7.002;2024-03-25T08:26:18;7.38;;;2.55;;
78336;SDS011;67610;51.588;7.002;2024-03-25T08:28:44;11.05;;;3.00;;
78336;SDS011;67610;51.588;7.002;2024-03-25T08:31:09;10.68;;;2.33;;
78336;SDS011;67610;51.588;7.002;2024-03-25T08:33:35;9.32;;;2.97;;
78336;SDS011;67610;51.588;7.002;2024-03-25T08:36:00;11.20;;;2.78;;
78336;SDS011;67610;51.588;7.002;2024-03-25T08:38:26;10.48;;;2.63;;
78336;SDS011;67610;51.588;7.002;2024-03-25T08:40:51;10.05;;;2.30;;
78336;SDS011;67610;51.588;7.002;2024-03-25T08:43:17;10.65;;;2.45;;
78336;SDS011;67610;51.588;7.002;2024-03-25T08:45:43;8.32;;;1.95;;
78336;SDS011;67610;51.588;7.002;2024-03-25T08:48:09;10.45;;;2.33;;
78336;SDS011;67610;51.588;7.002;2024-03-25T08:50:34;7.97;;;2.00;;
78336;SDS011;67610;51.588;7.002;2024-03-25T08:53:00;7.88;;;2.38;;
78336;SDS011;67610;51.588;7.002;2024-03-25T08:55:26;6.57;;;2.47;;
78336;SDS011;67610;51.588;7.002;2024-03-25T08:57:55;9.82;;;2.40;;
78336;SDS011;67610;51.588;7.002;2024-03-25T09:00:23;7.00;;;1.95;;
78336;SDS011;67610;51.588;7.002;2024-03-25T09:02:52;4.68;;;1.70;;
78336;SDS011;67610;51.588;7.002;2024-03-25T09:05:18;5.28;;;1.30;;
78336;SDS011;67610;51.588;7.002;2024-03-25T09:07:43;8.35;;;1.80;;
78336;SDS011;67610;51.588;7.002;2024-03-25T09:10:10;9.48;;;1.75;;
78336;SDS011;67610;51.588;7.002;2024-03-25T09:12:54;7.82;;;1.27;;
78336;SDS011;67610;51.588;7.002;2024-03-25T09:15:20;6.32;;;1.25;;
78336;SDS011;67610;51.588;7.002;2024-03-25T09:17:45;5.75;;;1.52;;
78336;SDS011;67610;51.588;7.002;2024-03-25T09:20:10;6.82;;;1.35;;
78336;SDS011;67610;51.588;7.002;2024-03-25T09:22:44;5.65;;;1.30;;
78336;SDS011;67610;51.588;7.002;2024-03-25T09:25:10;7.65;;;1.70;;
78336;SDS011;67610;51.588;7.002;2024-03-25T09:27:35;6.25;;;1.45;;
78336;SDS011;67610;51.588;7.002;2024-03-25T09:30:01;7.15;;;2.45;;
78336;SDS011;67610;51.588;7.002;2024-03-25T09:32:28;6.18;;;1.77;;
78336;SDS011;67610;51.588;7.002;2024-03-25T09:34:55;7.05;;;2.40;;
78336;SDS011;67610;51.588;7.002;2024-03-25T09:37:21;4.95;;;1.63;;
78336;SDS011;67610;51.588;7.002;2024-03-25T09:39:46;8.13;;;2.50;;
78336;SDS011;67610;51.588;7.002;2024-03-25T09:42:15;8.05;;;2.53;;
78336;SDS011;67610;51.588;7.002;2024-03-25T09:44:46;6.10;;;2.50;;
78336;SDS011;67610;51.588;7.002;2024-03-25T09:47:12;9.13;;;3.00;;
78336;SDS011;67610;51.588;7.002;2024-03-25T09:49:37;5.97;;;2.67;;
78336;SDS011;67610;51.588;7.002;2024-03-25T09:52:05;11.25;;;3.35;;
78336;SDS011;67610;51.588;7.002;2024-03-25T09:54:31;8.63;;;2.95;;
78336;SDS011;67610;51.588;7.002;2024-03-25T09:56:57;11.98;;;3.22;;
78336;SDS011;67610;51.588;7.002;2024-03-25T09:59:24;13.57;;;3.72;;
78336;SDS011;67610;51.588;7.002;2024-03-25T10:01:49;8.23;;;2.60;;
78336;SDS011;67610;51.588;7.002;2024-03-25T10:04:16;7.28;;;2.40;;
78336;SDS011;67610;51.588;7.002;2024-03-25T10:06:41;6.28;;;1.95;;
78336;SDS011;67610;51.588;7.002;2024-03-25T10:09:06;8.55;;;2.10;;
78336;SDS011;67610;51.588;7.002;2024-03-25T10:11:32;7.07;;;2.35;;
78336;SDS011;67610;51.588;7.002;2024-03-25T10:14:00;8.55;;;1.90;;
78336;SDS011;67610;51.588;7.002;2024-03-25T10:16:31;4.50;;;1.83;;
78336;SDS011;67610;51.588;7.002;2024-03-25T10:18:56;7.78;;;1.80;;
78336;SDS011;67610;51.588;7.002;2024-03-25T10:21:22;6.18;;;2.05;;
78336;SDS011;67610;51.588;7.002;2024-03-25T10:23:48;6.47;;;1.63;;
78336;SDS011;67610;51.588;7.002;2024-03-25T10:29:08;5.18;;;1.77;;
78336;SDS011;67610;51.588;7.002;2024-03-25T10:31:35;7.10;;;1.98;;
78336;SDS011;67610;51.588;7.002;2024-03-25T10:34:01;5.53;;;1.70;;
78336;SDS011;67610;51.588;7.002;2024-03-25T10:36:26;4.13;;;1.83;;
78336;SDS011;67610;51.588;7.002;2024-03-25T10:38:56;7.10;;;2.40;;
78336;SDS011;67610;51.588;7.002;2024-03-25T10:41:32;4.60;;;1.95;;
78336;SDS011;67610;51.588;7.002;2024-03-25T10:43:59;6.57;;;1.83;;
78336;SDS011;67610;51.588;7.002;2024-03-25T10:46:31;6.93;;;2.03;;
78336;SDS011;67610;51.588;7.002;2024-03-25T10:49:01;7.68;;;2.00;;
78336;SDS011;67610;51.588;7.002;2024-03-25T10:51:34;8.35;;;2.30;;
78336;SDS011;67610;51.588;7.002;2024-03-25T10:54:00;9.98;;;2.40;;
78336;SDS011;67610;51.588;7.002;2024-03-25T10:56:28;7.75;;;2.28;;
78336;SDS011;67610;51.588;7.002;2024-03-25T10:58:54;5.93;;;1.77;;
78336;SDS011;67610;51.588;7.002;2024-03-25T11:01:21;6.53;;;2.13;;
78336;SDS011;67610;51.588;7.002;2024-03-25T11:03:47;8.10;;;2.17;;
78336;SDS011;67610;51.588;7.002;2024-03-25T11:06:14;5.70;;;1.98;;
78336;SDS011;67610;51.588;7.002;2024-03-25T11:08:40;7.30;;;2.10;;
78336;SDS011;67610;51.588;7.002;2024-03-25T11:11:06;8.85;;;2.22;;
78336;SDS011;67610;51.588;7.002;2024-03-25T11:13:32;8.35;;;1.77;;
78336;SDS011;67610;51.588;7.002;2024-03-25T11:15:58;6.70;;;2.10;;
78336;SDS011;67610;51.588;7.002;2024-03-25T11:18:24;3.35;;;1.75;;
78336;SDS011;67610;51.588;7.002;2024-03-25T11:21:03;14.75;;;6.32;;
78336;SDS011;67610;51.588;7.002;2024-03-25T11:23:43;7.90;;;2.92;;
78336;SDS011;67610;51.588;7.002;2024-03-25T11:26:24;8.55;;;2.05;;
78336;SDS011;67610;51.588;7.002;2024-03-25T11:28:49;5.88;;;1.80;;
78336;SDS011;67610;51.588;7.002;2024-03-25T11:31:16;4.53;;;2.35;;
78336;SDS011;67610;51.588;7.002;2024-03-25T11:33:41;7.63;;;1.90;;
78336;SDS011;67610;51.588;7.002;2024-03-25T11:36:07;4.38;;;1.77;;
78336;SDS011;67610;51.588;7.002;2024-03-25T11:38:33;6.65;;;2.00;;
78336;SDS011;67610;51.588;7.002;2024-03-25T11:40:59;7.70;;;1.77;;
78336;SDS011;67610;51.588;7.002;2024-03-25T11:43:25;5.28;;;1.90;;
78336;SDS011;67610;51.588;7.002;2024-03-25T11:45:50;4.65;;;1.80;;
78336;SDS011;67610;51.588;7.002;2024-03-25T11:48:17;8.15;;;1.80;;
78336;SDS011;67610;51.588;7.002;2024-03-25T11:50:46;5.70;;;1.50;;
78336;SDS011;67610;51.588;7.002;2024-03-25T11:53:15;5.85;;;1.48;;
78336;SDS011;67610;51.588;7.002;2024-03-25T11:55:41;5.50;;;1.52;;
78336;SDS011;67610;51.588;7.002;2024-03-25T11:58:11;2.75;;;1.38;;
78336;SDS011;67610;51.588;7.002;2024-03-25T12:00:42;6.80;;;2.10;;
78336;SDS011;67610;51.588;7.002;2024-03-25T12:03:14;6.68;;;1.80;;
78336;SDS011;67610;51.588;7.002;2024-03-25T12:05:40;6.07;;;2.40;;
78336;SDS011;67610;51.588;7.002;2024-03-25T12:08:08;6.07;;;2.00;;
78336;SDS011;67610;51.588;7.002;2024-03-25T12:10:35;3.03;;;1.55;;
78336;SDS011;67610;51.588;7.002;2024-03-25T12:13:20;8.90;;;2.35;;
78336;SDS011;67610;51.588;7.002;2024-03-25T12:15:46;3.70;;;1.90;;
78336;SDS011;67610;51.588;7.002;2024-03-25T12:18:13;7.15;;;2.00;;
78336;SDS011;67610;51.588;7.002;2024-03-25T12:20:39;4.85;;;1.85;;
78336;SDS011;67610;51.588;7.002;2024-03-25T12:23:04;5.18;;;1.60;;
78336;SDS011;67610;51.588;7.002;2024-03-25T12:25:30;4.47;;;1.67;;
78336;SDS011;67610;51.588;7.002;2024-03-25T12:27:56;5.45;;;1.50;;
78336;SDS011;67610;51.588;7.002;2024-03-25T12:30:22;6.03;;;2.17;;
78336;SDS011;67610;51.588;7.002;2024-03-25T12:32:47;5.95;;;1.98;;
78336;SDS011;67610;51.588;7.002;2024-03-25T12:35:14;5.93;;;1.80;;
78336;SDS011;67610;51.588;7.002;2024-03-25T12:37:44;4.10;;;1.35;;
78336;SDS011;67610;51.588;7.002;2024-03-25T12:40:11;2.53;;;1.27;;
78336;SDS011;67610;51.588;7.002;2024-03-25T12:42:53;4.55;;;1.65;;
78336;SDS011;67610;51.588;7.002;2024-03-25T12:45:22;5.53;;;1.60;;
78336;SDS011;67610;51.588;7.002;2024-03-25T12:47:49;4.80;;;1.75;;
78336;SDS011;67610;51.588;7.002;2024-03-25T12:50:15;3.45;;;1.70;;
78336;SDS011;67610;51.588;7.002;2024-03-25T12:52:40;3.90;;;1.40;;
78336;SDS011;67610;51.588;7.002;2024-03-25T12:55:06;2.53;;;1.40;;
78336;SDS011;67610;51.588;7.002;2024-03-25T12:57:31;9.20;;;1.67;;
78336;SDS011;67610;51.588;7.002;2024-03-25T12:59:57;6.90;;;1.77;;
78336;SDS011;67610;51.588;7.002;2024-03-25T13:02:22;6.07;;;1.60;;
78336;SDS011;67610;51.588;7.002;2024-03-25T13:04:47;4.88;;;1.63;;
78336;SDS011;67610;51.588;7.002;2024-03-25T13:07:13;7.03;;;1.40;;
78336;SDS011;67610;51.588;7.002;2024-03-25T13:09:38;4.25;;;1.48;;
78336;SDS011;67610;51.588;7.002;2024-03-25T13:12:04;3.78;;;1.25;;
78336;SDS011;67610;51.588;7.002;2024-03-25T13:14:29;3.42;;;1.70;;
78336;SDS011;67610;51.588;7.002;2024-03-25T13:16:55;4.75;;;1.55;;
78336;SDS011;67610;51.588;7.002;2024-03-25T13:19:20;3.22;;;1.15;;
78336;SDS011;67610;51.588;7.002;2024-03-25T13:21:47;3.08;;;1.10;;
78336;SDS011;67610;51.588;7.002;2024-03-25T13:24:13;2.35;;;1.00;;
78336;SDS011;67610;51.588;7.002;2024-03-25T13:26:38;8.82;;;1.45;;
78336;SDS011;67610;51.588;7.002;2024-03-25T13:29:04;4.82;;;0.98;;
78336;SDS011;67610;51.588;7.002;2024-03-25T13:31:30;4.82;;;1.38;;
78336;SDS011;67610;51.588;7.002;2024-03-25T13:33:55;4.15;;;1.00;;
78336;SDS011;67610;51.588;7.002;2024-03-25T13:36:20;4.80;;;1.00;;
78336;SDS011;67610;51.588;7.002;2024-03-25T13:38:46;5.05;;;1.60;;
78336;SDS011;67610;51.588;7.002;2024-03-25T13:41:11;2.97;;;1.08;;
78336;SDS011;67610;51.588;7.002;2024-03-25T13:43:41;4.00;;;1.30;;
78336;SDS011;67610;51.588;7.002;2024-03-25T13:46:08;3.40;;;1.17;;
78336;SDS011;67610;51.588;7.002;2024-03-25T13:48:34;3.47;;;1.55;;
78336;SDS011;67610;51.588;7.002;2024-03-25T13:50:59;3.17;;;1.10;;
78336;SDS011;67610;51.588;7.002;2024-03-25T13:53:24;6.63;;;1.60;;
78336;SDS011;67610;51.588;7.002;2024-03-25T13:55:50;4.20;;;1.55;;
78336;SDS011;67610;51.588;7.002;2024-03-25T13:58:16;8.73;;;1.27;;
78336;SDS011;67610;51.588;7.002;2024-03-25T14:00:41;1.85;;;0.80;;
78336;SDS011;67610;51.588;7.002;2024-03-25T14:03:06;2.75;;;1.08;;
78336;SDS011;67610;51.588;7.002;2024-03-25T14:05:32;4.63;;;1.00;;
78336;SDS011;67610;51.588;7.002;2024-03-25T14:07:58;3.55;;;1.02;;
78336;SDS011;67610;51.588;7.002;2024-03-25T14:10:23;6.88;;;1.30;;
78336;SDS011;67610;51.588;7.002;2024-03-25T14:12:49;4.80;;;1.50;;
78336;SDS011;67610;51.588;7.002;2024-03-25T14:15:14;4.40;;;1.50;;
78336;SDS011;67610;51.588;7.002;2024-03-25T14:17:40;4.20;;;1.00;;
78336;SDS011;67610;51.588;7.002;2024-03-25T14:20:06;3.20;;;1.13;;
78336;SDS011;67610;51.588;7.002;2024-03-25T14:22:33;4.30;;;0.90;;
78336;SDS011;67610;51.588;7.002;2024-03-25T14:24:59;5.38;;;1.40;;
78336;SDS011;67610;51.588;7.002;2024-03-25T14:27:24;3.38;;;1.10;;
78336;SDS011;67610;51.588;7.002;2024-03-25T14:29:50;4.97;;;1.35;;
78336;SDS011;67610;51.588;7.002;2024-03-25T14:32:19;4.43;;;1.58;;
78336;SDS011;67610;51.588;7.002;2024-03-25T14:34:49;2.22;;;0.95;;
78336;SDS011;67610;51.588;7.002;2024-03-25T14:37:14;2.67;;;1.02;;